Time;durP1;ratioP1;P1;durP2;ratioP2;P2;SDS_P1;SDS_P2;PMS_P1;PMS_P2;Temp;Humidity;BMP_temperature;BMP_pressure;BME280_temperature;BME280_humidity;BME280_pressure;Samples;Min_cycle;Max_cycle;Signal;HPM_P1;HPM_P2
2022/09/17 00:02:06;;;;;;;9.32;3.30;;;;;;;;;;4970411;28;20518;-68
2022/09/17 00:04:36;;;;;;;10.93;3.33;;;;;;;;;;4954172;28;20063;-69
2022/09/17 00:07:06;;;;;;;12.77;3.80;;;;;;;;;;4968210;28;20058;-68
2022/09/17 00:09:36;;;;;;;10.63;3.30;;;;;;;;;;4970788;28;20061;-69
2022/09/17 00:12:06;;;;;;;8.43;2.95;;;;;;;;;;5009530;28;20046;-68
2022/09/17 00:14:36;;;;;;;7.38;2.95;;;;;;;;;;5003669;28;20460;-69
2022/09/17 00:17:06;;;;;;;6.78;2.60;;;;;;;;;;5079402;28;20064;-68
2022/09/17 00:19:38;;;;;;;11.38;2.65;;;;;;;;;;5091631;28;20044;-69
2022/09/17 00:22:08;;;;;;;9.50;2.58;;;;;;;;;;5091326;28;20415;-68
2022/09/17 00:24:38;;;;;;;8.02;2.63;;;;;;;;;;5091520;28;20048;-68
2022/09/17 00:27:08;;;;;;;11.70;2.25;;;;;;;;;;5091244;28;20097;-68
2022/09/17 00:29:39;;;;;;;10.95;2.72;;;;;;;;;;5091180;28;20116;-68
2022/09/17 00:32:09;;;;;;;7.95;3.22;;;;;;;;;;5089992;28;20048;-69
2022/09/17 00:34:39;;;;;;;13.27;3.63;;;;;;;;;;5091078;28;20044;-68
2022/09/17 00:37:09;;;;;;;12.20;3.72;;;;;;;;;;5091158;28;20488;-68
2022/09/17 00:39:40;;;;;;;9.57;3.30;;;;;;;;;;5088460;28;20115;-68
2022/09/17 00:42:13;;;;;;;12.95;3.28;;;;;;;;;;5055410;28;20507;-68
2022/09/17 00:44:55;;;;;;;9.10;3.47;;;;;;;;;;5018236;28;20052;-69
2022/09/17 00:47:44;;;;;;;9.82;3.50;;;;;;;;;;5067970;28;20065;-69
2022/09/17 00:50:14;;;;;;;12.98;3.60;;;;;;;;;;5034851;28;20075;-69
2022/09/17 00:52:51;;;;;;;9.05;3.63;;;;;;;;;;5066950;28;20055;-70
2022/09/17 00:55:27;;;;;;;11.48;3.58;;;;;;;;;;5049548;28;20051;-69
2022/09/17 00:58:00;;;;;;;8.88;3.58;;;;;;;;;;5068117;28;20056;-68
2022/09/17 01:00:31;;;;;;;9.77;3.58;;;;;;;;;;5020408;28;20468;-69
2022/09/17 01:03:03;;;;;;;9.35;3.85;;;;;;;;;;5048021;28;20049;-68
2022/09/17 01:06:07;;;;;;;12.68;3.75;;;;;;;;;;5048384;28;20049;-68
2022/09/17 01:09:02;;;;;;;16.08;3.60;;;;;;;;;;4988748;28;20054;-68
2022/09/17 01:11:53;;;;;;;89.20;9.50;;;;;;;;;;4988944;28;20069;-68
2022/09/17 01:14:36;;;;;;;11.95;3.50;;;;;;;;;;4931261;29;20451;-69
2022/09/17 01:17:30;;;;;;;6.90;2.38;;;;;;;;;;4923667;29;20056;-69
2022/09/17 01:20:29;;;;;;;7.80;2.63;;;;;;;;;;4915561;29;20067;-69
2022/09/17 01:23:25;;;;;;;6.45;2.47;;;;;;;;;;4929962;29;20060;-68
2022/09/17 01:26:13;;;;;;;6.03;2.00;;;;;;;;;;4934412;29;20051;-69
2022/09/17 01:28:58;;;;;;;8.63;4.18;;;;;;;;;;4934379;29;20071;-69
2022/09/17 01:31:35;;;;;;;8.18;1.80;;;;;;;;;;4934491;29;20058;-70
2022/09/17 01:34:22;;;;;;;3.65;1.40;;;;;;;;;;4918837;29;20060;-68
2022/09/17 01:37:36;;;;;;;6.55;1.50;;;;;;;;;;4887374;29;20060;-69
2022/09/17 01:40:40;;;;;;;4.22;1.23;;;;;;;;;;4882395;29;20052;-69
2022/09/17 01:43:29;;;;;;;5.07;1.63;;;;;;;;;;4896624;29;20719;-69
2022/09/17 01:46:17;;;;;;;2.20;0.90;;;;;;;;;;4944913;28;20435;-69
2022/09/17 01:48:54;;;;;;;4.63;1.50;;;;;;;;;;4973001;28;20047;-68
2022/09/17 01:51:29;;;;;;;5.07;1.45;;;;;;;;;;4996186;28;20057;-68
2022/09/17 01:54:20;;;;;;;2.05;0.90;;;;;;;;;;5031313;28;20401;-69
2022/09/17 01:57:13;;;;;;;3.08;1.30;;;;;;;;;;5031390;28;20053;-69
2022/09/17 02:00:14;;;;;;;3.30;1.52;;;;;;;;;;4983734;28;20056;-69
2022/09/17 02:02:48;;;;;;;3.97;1.20;;;;;;;;;;4972542;28;20055;-69
2022/09/17 02:05:27;;;;;;;5.47;1.30;;;;;;;;;;4972428;28;20050;-69
2022/09/17 02:08:04;;;;;;;;;;;;;;;;;;4972508;28;20058;-69
2022/09/17 02:10:39;;;;;;;3.15;1.20;;;;;;;;;;4972229;28;20027;-68
2022/09/17 02:13:26;;;;;;;5.25;0.88;;;;;;;;;;4972252;28;20057;-68
2022/09/17 02:16:11;;;;;;;1.90;0.90;;;;;;;;;;4997009;28;20065;-69
2022/09/17 02:18:53;;;;;;;2.15;1.00;;;;;;;;;;5011085;28;20050;-69
2022/09/17 02:21:43;;;;;;;1.77;0.80;;;;;;;;;;5010907;28;20061;-70
2022/09/17 02:24:28;;;;;;;3.05;0.90;;;;;;;;;;4962556;28;20050;-69
2022/09/17 02:27:18;;;;;;;2.72;0.82;;;;;;;;;;5010510;28;20049;-69
2022/09/17 02:29:50;;;;;;;3.08;1.08;;;;;;;;;;5010306;28;20100;-69
2022/09/17 02:32:21;;;;;;;4.13;1.20;;;;;;;;;;4971523;28;20050;-69
2022/09/17 02:34:52;;;;;;;4.82;1.88;;;;;;;;;;4971874;28;20462;-70
2022/09/17 02:37:22;;;;;;;5.15;1.70;;;;;;;;;;4971577;28;20195;-70
2022/09/17 02:39:52;;;;;;;4.75;1.67;;;;;;;;;;4983795;28;20054;-70
2022/09/17 02:42:42;;;;;;;4.38;1.80;;;;;;;;;;4991161;28;20414;-69
2022/09/17 02:45:45;;;;;;;2.85;1.13;;;;;;;;;;4991185;28;20051;-70
2022/09/17 02:48:37;;;;;;;3.92;1.33;;;;;;;;;;4914582;29;20060;-70
2022/09/17 02:51:38;;;;;;;3.13;1.20;;;;;;;;;;4913741;29;20048;-70
2022/09/17 02:54:16;;;;;;;3.80;0.90;;;;;;;;;;4913917;29;20060;-70
2022/09/17 02:57:02;;;;;;;1.98;1.27;;;;;;;;;;4913785;29;20052;-69
2022/09/17 02:59:53;;;;;;;3.25;0.80;;;;;;;;;;4914123;29;20071;-69
2022/09/17 03:02:29;;;;;;;3.33;1.20;;;;;;;;;;4913633;29;20487;-69
2022/09/17 03:05:03;;;;;;;1.58;0.73;;;;;;;;;;4937912;28;20055;-70
2022/09/17 03:07:33;;;;;;;4.35;1.35;;;;;;;;;;4951563;29;20159;-69
2022/09/17 03:10:04;;;;;;;3.35;0.90;;;;;;;;;;4972208;28;20058;-69
2022/09/17 03:12:36;;;;;;;3.83;1.70;;;;;;;;;;4990316;28;20073;-69
2022/09/17 03:15:06;;;;;;;;;;;;;;;;;;4990990;28;20054;-69
2022/09/17 03:17:36;;;;;;;2.42;1.25;;;;;;;;;;4958515;28;19921;-69
2022/09/17 03:20:07;;;;;;;2.40;0.90;;;;;;;;;;4942387;28;20517;-68
2022/09/17 03:22:38;;;;;;;2.70;0.90;;;;;;;;;;4990324;28;20396;-69
2022/09/17 03:25:09;;;;;;;4.53;1.55;;;;;;;;;;5016217;28;20064;-69
2022/09/17 03:27:39;;;;;;;1.48;0.82;;;;;;;;;;5051288;28;20052;-69
2022/09/17 03:30:09;;;;;;;1.27;0.43;;;;;;;;;;5089570;28;20055;-69
2022/09/17 03:32:39;;;;;;;3.60;0.88;;;;;;;;;;5055994;28;20063;-69
2022/09/17 03:35:10;;;;;;;1.67;0.73;;;;;;;;;;5089688;28;20048;-69
2022/09/17 03:37:40;;;;;;;2.25;0.73;;;;;;;;;;5049307;28;20057;-69
2022/09/17 03:40:10;;;;;;;1.95;0.73;;;;;;;;;;5049240;28;20485;-69
2022/09/17 03:42:40;;;;;;;2.85;0.60;;;;;;;;;;5049498;28;20057;-69
2022/09/17 03:45:10;;;;;;;1.60;0.70;;;;;;;;;;5038775;28;20049;-68
2022/09/17 03:47:41;;;;;;;1.58;0.60;;;;;;;;;;5049473;28;20076;-68
2022/09/17 03:50:11;;;;;;;2.20;0.85;;;;;;;;;;4999691;28;20459;-68
2022/09/17 03:52:43;;;;;;;1.10;0.60;;;;;;;;;;5032517;28;20060;-69
2022/09/17 03:55:16;;;;;;;1.08;0.57;;;;;;;;;;5048874;28;20093;-69
2022/09/17 03:57:46;;;;;;;1.15;0.55;;;;;;;;;;5049091;28;20061;-69
2022/09/17 04:00:16;;;;;;;1.50;0.43;;;;;;;;;;5048944;28;20512;-69
2022/09/17 04:02:47;;;;;;;2.30;0.50;;;;;;;;;;5048823;28;20056;-69
2022/09/17 04:05:17;;;;;;;1.98;0.60;;;;;;;;;;5049102;28;20052;-69
2022/09/17 04:07:47;;;;;;;1.85;0.75;;;;;;;;;;5048718;28;20064;-69
2022/09/17 04:10:18;;;;;;;1.40;0.50;;;;;;;;;;5048796;28;20048;-69
2022/09/17 04:12:48;;;;;;;2.00;0.50;;;;;;;;;;5048729;28;20064;-69
2022/09/17 04:15:18;;;;;;;1.58;0.55;;;;;;;;;;5015278;28;20052;-69
2022/09/17 04:17:48;;;;;;;1.10;0.55;;;;;;;;;;5049214;28;20057;-69
2022/09/17 04:20:18;;;;;;;2.65;0.50;;;;;;;;;;4999359;28;20052;-69
2022/09/17 04:22:48;;;;;;;1.38;0.75;;;;;;;;;;5058692;28;20060;-69
2022/09/17 04:25:18;;;;;;;1.90;0.50;;;;;;;;;;5052166;28;20056;-69
2022/09/17 04:27:49;;;;;;;1.35;0.60;;;;;;;;;;5068624;28;20053;-69
2022/09/17 04:30:19;;;;;;;1.58;0.50;;;;;;;;;;5068740;28;20064;-68
2022/09/17 04:32:49;;;;;;;0.95;0.40;;;;;;;;;;5068664;28;20048;-69
2022/09/17 04:35:20;;;;;;;2.03;0.70;;;;;;;;;;5068646;28;20045;-69
2022/09/17 04:37:55;;;;;;;1.48;0.57;;;;;;;;;;5018961;28;20056;-69
2022/09/17 04:40:26;;;;;;;2.25;0.60;;;;;;;;;;5068444;28;20095;-68
2022/09/17 04:42:58;;;;;;;1.48;0.40;;;;;;;;;;5068576;28;20045;-69
2022/09/17 04:45:32;;;;;;;1.88;0.60;;;;;;;;;;5068140;28;20048;-69
2022/09/17 04:48:03;;;;;;;1.58;0.73;;;;;;;;;;5068589;28;20062;-68
2022/09/17 04:50:33;;;;;;;1.30;0.40;;;;;;;;;;5055240;28;20056;-69
2022/09/17 04:53:04;;;;;;;1.90;0.60;;;;;;;;;;5073876;28;20087;-69
2022/09/17 04:55:34;;;;;;;2.53;0.60;;;;;;;;;;5075887;28;20060;-69
2022/09/17 04:58:05;;;;;;;0.80;0.40;;;;;;;;;;5072170;28;20048;-69
2022/09/17 05:00:35;;;;;;;3.05;0.50;;;;;;;;;;5072408;28;20067;-69
2022/09/17 05:03:05;;;;;;;1.38;0.50;;;;;;;;;;5038951;28;20059;-69
2022/09/17 05:05:35;;;;;;;3.05;1.02;;;;;;;;;;5038759;28;20053;-68
2022/09/17 05:08:07;;;;;;;3.03;0.43;;;;;;;;;;5055618;28;20052;-70
2022/09/17 05:10:37;;;;;;;2.90;0.80;;;;;;;;;;5071970;28;20053;-69
2022/09/17 05:13:08;;;;;;;1.75;0.80;;;;;;;;;;5072182;28;20499;-69
2022/09/17 05:15:38;;;;;;;1.00;0.50;;;;;;;;;;5071794;28;20056;-69
2022/09/17 05:18:08;;;;;;;0.95;0.50;;;;;;;;;;5072100;28;20049;-69
2022/09/17 05:20:39;;;;;;;1.00;0.50;;;;;;;;;;5055590;28;20103;-68
2022/09/17 05:23:09;;;;;;;2.90;0.90;;;;;;;;;;5045192;28;20068;-69
2022/09/17 05:25:39;;;;;;;1.85;0.60;;;;;;;;;;5019523;28;20417;-69
2022/09/17 05:28:09;;;;;;;0.85;0.45;;;;;;;;;;5011863;28;20417;-69
2022/09/17 05:30:39;;;;;;;1.58;0.73;;;;;;;;;;5011931;28;20058;-69
2022/09/17 05:33:10;;;;;;;0.80;0.45;;;;;;;;;;4992138;28;20054;-69
2022/09/17 05:35:41;;;;;;;1.55;0.57;;;;;;;;;;5001826;28;20054;-69
2022/09/17 05:38:12;;;;;;;2.10;0.52;;;;;;;;;;4979832;28;20076;-69
2022/09/17 05:40:42;;;;;;;1.75;0.55;;;;;;;;;;4992001;28;20050;-69
2022/09/17 05:43:12;;;;;;;1.75;0.70;;;;;;;;;;4992194;28;20070;-69
2022/09/17 05:45:43;;;;;;;2.03;0.60;;;;;;;;;;4992103;28;20054;-69
2022/09/17 05:48:14;;;;;;;1.50;0.50;;;;;;;;;;4992136;28;20046;-69
2022/09/17 05:50:45;;;;;;;2.35;0.70;;;;;;;;;;4928404;28;20080;-69
2022/09/17 05:53:16;;;;;;;2.25;0.68;;;;;;;;;;4991956;28;20069;-69
2022/09/17 05:55:46;;;;;;;1.15;0.60;;;;;;;;;;4992097;28;20051;-68
2022/09/17 05:58:18;;;;;;;4.63;1.00;;;;;;;;;;4991961;28;20543;-69
2022/09/17 06:00:49;;;;;;;1.95;0.60;;;;;;;;;;4992225;28;20046;-69
2022/09/17 06:03:23;;;;;;;1.15;0.63;;;;;;;;;;4991225;28;20058;-70
2022/09/17 06:05:56;;;;;;;1.35;0.50;;;;;;;;;;5012764;28;20068;-69
2022/09/17 06:08:28;;;;;;;2.22;0.70;;;;;;;;;;5011132;28;20533;-69
2022/09/17 06:11:02;;;;;;;2.72;0.70;;;;;;;;;;5034018;28;20053;-69
2022/09/17 06:13:33;;;;;;;1.33;0.60;;;;;;;;;;5030908;28;20041;-69
2022/09/17 06:16:04;;;;;;;1.70;0.70;;;;;;;;;;5031258;28;20057;-69
2022/09/17 06:18:34;;;;;;;2.03;0.50;;;;;;;;;;5010028;28;20076;-68
2022/09/17 06:21:05;;;;;;;1.77;0.80;;;;;;;;;;5050968;28;20061;-68
2022/09/17 06:23:36;;;;;;;1.00;0.50;;;;;;;;;;5050747;28;20055;-68
2022/09/17 06:26:06;;;;;;;2.30;0.80;;;;;;;;;;5017746;28;20049;-68
2022/09/17 06:28:37;;;;;;;1.02;0.60;;;;;;;;;;5034362;28;20045;-68
2022/09/17 06:31:12;;;;;;;6.05;0.55;;;;;;;;;;5050731;28;20061;-68
2022/09/17 06:33:42;;;;;;;1.70;0.60;;;;;;;;;;5050912;28;20064;-68
2022/09/17 06:36:13;;;;;;;2.47;0.80;;;;;;;;;;5034668;28;20057;-68
2022/09/17 06:38:43;;;;;;;3.05;0.60;;;;;;;;;;5050346;28;20057;-68
2022/09/17 06:41:15;;;;;;;3.00;1.25;;;;;;;;;;5050432;28;20053;-68
2022/09/17 06:43:46;;;;;;;1.55;0.60;;;;;;;;;;5001340;28;20053;-68
2022/09/17 06:46:16;;;;;;;3.90;0.70;;;;;;;;;;5062563;28;20504;-68
2022/09/17 06:48:46;;;;;;;3.60;0.65;;;;;;;;;;5070197;28;20056;-68
2022/09/17 06:51:16;;;;;;;3.03;0.75;;;;;;;;;;5091874;28;20495;-68
2022/09/17 06:53:46;;;;;;;0.95;0.50;;;;;;;;;;5110602;28;20052;-68
2022/09/17 06:56:17;;;;;;;2.72;0.90;;;;;;;;;;5111064;28;20047;-68
2022/09/17 06:58:47;;;;;;;2.15;0.70;;;;;;;;;;5110751;28;20060;-68
2022/09/17 07:01:17;;;;;;;1.65;0.57;;;;;;;;;;5060190;28;20544;-68
2022/09/17 07:03:48;;;;;;;2.25;0.57;;;;;;;;;;5110467;28;20061;-68
2022/09/17 07:06:19;;;;;;;1.65;0.70;;;;;;;;;;5076776;28;20478;-68
2022/09/17 07:08:49;;;;;;;1.75;0.70;;;;;;;;;;5093677;28;20051;-68
2022/09/17 07:11:19;;;;;;;2.67;0.70;;;;;;;;;;5093840;28;20071;-68
2022/09/17 07:13:49;;;;;;;1.73;0.60;;;;;;;;;;5076302;28;20513;-69
2022/09/17 07:16:20;;;;;;;3.33;0.80;;;;;;;;;;5076380;28;20055;-69
2022/09/17 07:18:51;;;;;;;5.05;0.80;;;;;;;;;;5109291;28;20062;-68
2022/09/17 07:21:21;;;;;;;2.30;0.70;;;;;;;;;;5092333;28;20059;-68
2022/09/17 07:23:51;;;;;;;1.65;0.70;;;;;;;;;;5092117;28;20040;-69
2022/09/17 07:26:21;;;;;;;2.53;0.85;;;;;;;;;;5055902;28;20052;-68
2022/09/17 07:28:51;;;;;;;1.77;0.85;;;;;;;;;;5055762;28;20059;-68
2022/09/17 07:31:22;;;;;;;2.03;0.82;;;;;;;;;;5073234;28;20542;-68
2022/09/17 07:33:52;;;;;;;3.53;0.75;;;;;;;;;;5089838;28;20052;-68
2022/09/17 07:36:23;;;;;;;2.80;0.60;;;;;;;;;;5089850;28;20411;-68
2022/09/17 07:38:53;;;;;;;1.83;0.75;;;;;;;;;;5089534;28;20087;-68
2022/09/17 07:41:23;;;;;;;1.52;0.65;;;;;;;;;;5019261;28;20040;-68
2022/09/17 07:43:54;;;;;;;1.60;0.75;;;;;;;;;;5035719;28;20064;-68
2022/09/17 07:46:25;;;;;;;2.15;0.80;;;;;;;;;;5069230;28;20063;-69
2022/09/17 07:48:55;;;;;;;2.67;0.73;;;;;;;;;;5069163;28;20048;-68
2022/09/17 07:51:30;;;;;;;1.10;0.70;;;;;;;;;;5052943;28;20060;-68
2022/09/17 07:54:01;;;;;;;2.25;0.73;;;;;;;;;;5068958;28;20559;-69
2022/09/17 07:56:31;;;;;;;1.42;0.60;;;;;;;;;;5069096;28;20048;-69
2022/09/17 07:59:03;;;;;;;1.73;0.63;;;;;;;;;;5069091;28;20097;-69
2022/09/17 08:01:35;;;;;;;3.08;0.80;;;;;;;;;;5052537;28;20053;-69
2022/09/17 08:04:05;;;;;;;1.58;0.70;;;;;;;;;;5035423;28;20045;-69
2022/09/17 08:06:39;;;;;;;3.22;0.75;;;;;;;;;;5048567;28;20055;-69
2022/09/17 08:09:11;;;;;;;1.92;0.73;;;;;;;;;;5048601;28;20437;-68
2022/09/17 08:11:43;;;;;;;5.10;0.82;;;;;;;;;;5048870;28;20049;-69
2022/09/17 08:14:29;;;;;;;1.75;0.63;;;;;;;;;;5020560;28;20053;-69
2022/09/17 08:16:59;;;;;;;1.50;0.68;;;;;;;;;;5049005;28;20057;-69
2022/09/17 08:19:31;;;;;;;2.08;0.85;;;;;;;;;;4992755;28;20057;-69
2022/09/17 08:22:03;;;;;;;1.15;0.60;;;;;;;;;;5009213;28;20054;-69
2022/09/17 08:24:34;;;;;;;2.10;0.80;;;;;;;;;;5009001;28;20046;-69
2022/09/17 08:27:04;;;;;;;2.53;1.00;;;;;;;;;;4937122;28;20054;-69
2022/09/17 08:29:34;;;;;;;2.30;0.90;;;;;;;;;;4953736;28;20054;-68
2022/09/17 08:32:05;;;;;;;3.00;0.73;;;;;;;;;;4970090;28;20063;-69
2022/09/17 08:34:35;;;;;;;2.83;1.05;;;;;;;;;;4970016;28;20058;-69
2022/09/17 08:37:05;;;;;;;5.28;0.80;;;;;;;;;;4970131;28;20065;-68
2022/09/17 08:39:37;;;;;;;1.63;0.50;;;;;;;;;;4969955;28;20102;-69
2022/09/17 08:42:12;;;;;;;2.55;0.85;;;;;;;;;;4970073;28;20054;-69
2022/09/17 08:44:46;;;;;;;3.70;0.80;;;;;;;;;;4983271;28;20059;-69
2022/09/17 08:47:37;;;;;;;5.53;1.15;;;;;;;;;;4957060;28;20418;-68
2022/09/17 08:50:17;;;;;;;1.88;0.80;;;;;;;;;;4974530;28;20055;-68
2022/09/17 08:52:47;;;;;;;5.35;0.90;;;;;;;;;;4988715;28;20075;-69
2022/09/17 08:55:24;;;;;;;6.32;1.00;;;;;;;;;;4989556;28;20519;-68
2022/09/17 08:58:12;;;;;;;5.75;1.02;;;;;;;;;;5008284;28;20052;-68
2022/09/17 09:01:04;;;;;;;2.28;0.90;;;;;;;;;;5028316;28;20050;-68
2022/09/17 09:04:09;;;;;;;1.83;0.80;;;;;;;;;;4970386;28;20043;-68
2022/09/17 09:06:48;;;;;;;4.10;0.90;;;;;;;;;;5008496;28;20081;-69
2022/09/17 09:09:22;;;;;;;3.85;1.00;;;;;;;;;;4975836;28;20058;-68
2022/09/17 09:12:02;;;;;;;3.75;0.80;;;;;;;;;;4976569;28;20054;-69
2022/09/17 09:15:15;;;;;;;6.97;1.00;;;;;;;;;;5008295;28;20053;-68
2022/09/17 09:17:48;;;;;;;1.67;1.00;;;;;;;;;;4950207;29;20059;-68
2022/09/17 09:20:47;;;;;;;2.95;0.85;;;;;;;;;;4950422;29;20055;-68
2022/09/17 09:23:26;;;;;;;5.85;0.98;;;;;;;;;;4877481;29;20227;-68
2022/09/17 09:26:18;;;;;;;3.40;0.95;;;;;;;;;;4911843;29;20044;-68
2022/09/17 09:29:09;;;;;;;7.05;1.77;;;;;;;;;;4912175;29;20064;-69
2022/09/17 09:32:12;;;;;;;2.92;1.15;;;;;;;;;;4880798;29;20404;-68
2022/09/17 09:34:47;;;;;;;5.03;1.25;;;;;;;;;;4865123;29;20052;-69
2022/09/17 09:37:30;;;;;;;6.93;2.58;;;;;;;;;;4913121;29;20060;-69
2022/09/17 09:40:23;;;;;;;7.63;2.15;;;;;;;;;;4934303;29;20059;-69
2022/09/17 09:42:54;;;;;;;4.43;1.73;;;;;;;;;;4934493;29;20551;-69
2022/09/17 09:45:49;;;;;;;5.63;2.10;;;;;;;;;;4934301;29;20435;-68
2022/09/17 09:48:26;;;;;;;4.60;1.83;;;;;;;;;;4934092;29;20060;-68
2022/09/17 09:51:26;;;;;;;5.78;2.05;;;;;;;;;;4934266;29;20072;-69
2022/09/17 09:54:19;;;;;;;6.22;1.70;;;;;;;;;;4977307;28;20077;-68
2022/09/17 09:56:57;;;;;;;3.75;1.40;;;;;;;;;;5011306;28;20050;-69
2022/09/17 09:59:27;;;;;;;4.03;1.58;;;;;;;;;;5020434;28;20046;-69
2022/09/17 10:01:57;;;;;;;13.70;1.83;;;;;;;;;;5091824;28;20051;-69
2022/09/17 10:04:29;;;;;;;5.78;1.80;;;;;;;;;;5093272;28;20060;-69
2022/09/17 10:07:10;;;;;;;8.35;2.22;;;;;;;;;;5093449;28;20051;-69
2022/09/17 10:09:45;;;;;;;6.05;2.13;;;;;;;;;;5090669;28;20507;-69
2022/09/17 10:12:17;;;;;;;7.43;1.88;;;;;;;;;;5041186;28;20066;-70
2022/09/17 10:14:47;;;;;;;5.15;1.92;;;;;;;;;;5074195;28;20487;-69
2022/09/17 10:17:24;;;;;;;5.15;1.77;;;;;;;;;;5091375;28;20052;-69
2022/09/17 10:20:12;;;;;;;6.55;1.77;;;;;;;;;;5091181;28;20526;-69
2022/09/17 10:22:47;;;;;;;7.47;3.13;;;;;;;;;;5091122;28;20048;-68
2022/09/17 10:25:32;;;;;;;8.30;3.00;;;;;;;;;;5090829;28;20043;-69
2022/09/17 10:28:20;;;;;;;6.50;2.70;;;;;;;;;;5057964;28;20063;-69
2022/09/17 10:31:02;;;;;;;6.53;2.63;;;;;;;;;;5073809;28;20052;-69
2022/09/17 10:34:00;;;;;;;5.30;2.60;;;;;;;;;;5074143;28;20056;-69
2022/09/17 10:36:39;;;;;;;7.38;2.03;;;;;;;;;;5090786;28;20051;-69
2022/09/17 10:39:43;;;;;;;2.47;1.08;;;;;;;;;;5090617;28;20570;-69
2022/09/17 10:42:18;;;;;;;4.90;1.67;;;;;;;;;;4991163;28;20055;-68
2022/09/17 10:44:53;;;;;;;2.83;1.20;;;;;;;;;;4991026;28;20058;-69
2022/09/17 10:47:40;;;;;;;4.30;1.30;;;;;;;;;;5001485;28;20068;-68
2022/09/17 10:50:35;;;;;;;3.47;1.30;;;;;;;;;;4990502;28;20093;-68
2022/09/17 10:53:16;;;;;;;3.50;1.10;;;;;;;;;;4990946;28;20054;-69
2022/09/17 10:56:28;;;;;;;4.88;0.60;;;;;;;;;;4951758;28;20082;-68
2022/09/17 10:59:32;;;;;;;2.17;0.55;;;;;;;;;;4952213;28;20055;-68
2022/09/17 11:02:33;;;;;;;1.98;0.60;;;;;;;;;;4951977;28;20078;-69
2022/09/17 11:05:44;;;;;;;5.47;0.63;;;;;;;;;;4951758;28;20047;-70
2022/09/17 11:08:43;;;;;;;1.40;0.47;;;;;;;;;;4951880;28;20051;-69
2022/09/17 11:11:36;;;;;;;1.75;0.60;;;;;;;;;;4894781;29;20501;-70
2022/09/17 11:14:34;;;;;;;0.75;0.38;;;;;;;;;;4894737;29;20057;-71
2022/09/17 11:17:19;;;;;;;1.13;0.68;;;;;;;;;;4808873;29;20068;-71
2022/09/17 11:20:06;;;;;;;1.25;0.68;;;;;;;;;;4908223;29;20198;-71
2022/09/17 11:22:43;;;;;;;0.95;0.35;;;;;;;;;;4909852;29;20065;-71
2022/09/17 11:25:29;;;;;;;2.65;0.57;;;;;;;;;;4894675;29;20580;-71
2022/09/17 11:28:30;;;;;;;1.30;0.52;;;;;;;;;;4905243;29;20067;-72
2022/09/17 11:31:29;;;;;;;1.23;0.40;;;;;;;;;;4897801;29;20052;-70
2022/09/17 11:34:02;;;;;;;1.00;0.40;;;;;;;;;;4946169;29;20055;-70
2022/09/17 11:36:50;;;;;;;1.10;0.30;;;;;;;;;;4919515;29;20198;-73
2022/09/17 11:39:29;;;;;;;0.55;0.32;;;;;;;;;;4951468;29;20051;-73
2022/09/17 11:42:03;;;;;;;1.10;0.40;;;;;;;;;;4951446;29;20062;-75
2022/09/17 11:45:01;;;;;;;0.80;0.30;;;;;;;;;;4951268;29;20059;-73
2022/09/17 11:47:39;;;;;;;1.48;0.30;;;;;;;;;;4953494;28;20499;-70
2022/09/17 11:50:21;;;;;;;2.15;0.93;;;;;;;;;;4971008;28;20051;-70
2022/09/17 11:53:07;;;;;;;2.13;1.00;;;;;;;;;;4970596;28;20062;-72
2022/09/17 11:56:02;;;;;;;0.80;0.30;;;;;;;;;;5089292;28;20048;-71
2022/09/17 11:58:51;;;;;;;0.93;0.30;;;;;;;;;;5072861;28;20056;-71
2022/09/17 12:02:01;;;;;;;2.15;0.63;;;;;;;;;;5088876;28;20043;-71
2022/09/17 12:05:06;;;;;;;;;;;;;;;;;;4993698;28;20062;-69
2022/09/17 12:07:52;;;;;;;1.75;0.50;;;;;;;;;;4951158;29;19922;-70
2022/09/17 12:10:31;;;;;;;2.83;1.20;;;;;;;;;;4903851;29;20547;-71
2022/09/17 12:13:30;;;;;;;3.08;1.25;;;;;;;;;;4969873;28;20090;-69
2022/09/17 12:16:25;;;;;;;2.67;0.50;;;;;;;;;;4969980;28;20085;-70
2022/09/17 12:19:19;;;;;;;1.38;0.70;;;;;;;;;;4970061;28;20069;-69
2022/09/17 12:22:33;;;;;;;1.98;0.38;;;;;;;;;;4969994;28;20059;-70
2022/09/17 12:25:14;;;;;;;0.93;0.40;;;;;;;;;;4931529;29;20070;-73
2022/09/17 12:28:11;;;;;;;1.50;0.40;;;;;;;;;;4931670;29;20535;-70
2022/09/17 12:30:48;;;;;;;3.17;0.70;;;;;;;;;;4856134;29;20115;-74
2022/09/17 12:33:31;;;;;;;8.98;2.95;;;;;;;;;;4856429;29;20110;-74
2022/09/17 12:36:21;;;;;;;13.77;4.20;;;;;;;;;;4841816;29;20422;-73
2022/09/17 12:39:20;;;;;;;2.17;0.65;;;;;;;;;;4856481;29;20431;-70
2022/09/17 12:42:11;;;;;;;1.02;0.50;;;;;;;;;;4876813;29;20176;-72
2022/09/17 12:45:02;;;;;;;2.03;0.50;;;;;;;;;;4893864;29;20537;-75
2022/09/17 12:47:50;;;;;;;1.60;0.90;;;;;;;;;;4862672;29;20409;-71
2022/09/17 12:50:45;;;;;;;2.45;0.47;;;;;;;;;;4907204;29;20432;-70
2022/09/17 12:53:30;;;;;;;1.50;0.80;;;;;;;;;;4931479;29;20060;-69
2022/09/17 12:56:19;;;;;;;0.88;0.50;;;;;;;;;;4931428;29;20059;-72
2022/09/17 12:59:09;;;;;;;0.63;0.25;;;;;;;;;;4939004;29;20062;-71
2022/09/17 13:01:45;;;;;;;1.90;0.70;;;;;;;;;;4935054;29;20055;-69
2022/09/17 13:04:27;;;;;;;1.20;0.73;;;;;;;;;;4950701;28;20207;-70
2022/09/17 13:07:26;;;;;;;1.63;0.80;;;;;;;;;;4982972;28;20071;-71
2022/09/17 13:10:16;;;;;;;0.65;0.35;;;;;;;;;;5067941;28;20055;-70
2022/09/17 13:12:58;;;;;;;1.05;0.30;;;;;;;;;;4989310;28;20433;-70
2022/09/17 13:16:03;;;;;;;1.77;0.47;;;;;;;;;;4992879;28;20050;-70
2022/09/17 13:19:14;;;;;;;1.95;0.80;;;;;;;;;;4992814;28;20138;-71
2022/09/17 13:21:48;;;;;;;3.38;0.60;;;;;;;;;;4992757;28;20059;-69
2022/09/17 13:24:23;;;;;;;0.32;0.20;;;;;;;;;;4944711;28;20046;-70
2022/09/17 13:26:55;;;;;;;1.10;0.30;;;;;;;;;;4992658;28;20049;-70
2022/09/17 13:29:44;;;;;;;0.85;0.40;;;;;;;;;;4972781;28;20051;-69
2022/09/17 13:32:35;;;;;;;1.48;0.30;;;;;;;;;;4973109;28;20474;-69
2022/09/17 13:35:08;;;;;;;0.90;0.30;;;;;;;;;;4973157;28;20519;-70
2022/09/17 13:37:43;;;;;;;1.27;0.40;;;;;;;;;;4940895;28;20057;-70
2022/09/17 13:40:33;;;;;;;2.22;0.52;;;;;;;;;;4972870;28;20066;-70
2022/09/17 13:43:05;;;;;;;1.55;0.30;;;;;;;;;;4972776;28;20090;-72
2022/09/17 13:45:59;;;;;;;1.75;0.55;;;;;;;;;;4972738;28;20065;-71
2022/09/17 13:48:33;;;;;;;0.20;0.10;;;;;;;;;;5006232;28;20049;-69
2022/09/17 13:51:31;;;;;;;1.30;0.50;;;;;;;;;;5029703;28;20064;-69
2022/09/17 13:54:07;;;;;;;2.20;0.50;;;;;;;;;;5031189;28;20049;-68
2022/09/17 13:56:44;;;;;;;1.10;0.50;;;;;;;;;;5031531;28;20053;-69
2022/09/17 13:59:25;;;;;;;1.52;0.40;;;;;;;;;;5030932;28;20658;-69
2022/09/17 14:02:04;;;;;;;3.13;0.60;;;;;;;;;;5031305;28;20068;-69
2022/09/17 14:04:40;;;;;;;1.52;0.50;;;;;;;;;;5031474;28;20092;-70
2022/09/17 14:07:22;;;;;;;2.50;0.63;;;;;;;;;;5031163;28;20061;-69
2022/09/17 14:09:53;;;;;;;0.98;0.50;;;;;;;;;;5011937;28;20052;-70
2022/09/17 14:12:46;;;;;;;0.85;0.30;;;;;;;;;;5005259;28;20067;-70
2022/09/17 14:15:53;;;;;;;0.65;0.35;;;;;;;;;;5071104;28;20040;-69
2022/09/17 14:18:27;;;;;;;0.60;0.40;;;;;;;;;;5021625;28;20056;-69
2022/09/17 14:21:09;;;;;;;0.75;0.32;;;;;;;;;;5070875;28;20543;-72
2022/09/17 14:23:49;;;;;;;0.90;0.47;;;;;;;;;;5054743;28;20055;-69
2022/09/17 14:26:38;;;;;;;2.38;0.40;;;;;;;;;;5082698;28;20063;-68
2022/09/17 14:29:12;;;;;;;0.70;0.40;;;;;;;;;;5093313;28;20051;-69
2022/09/17 14:31:42;;;;;;;3.13;0.22;;;;;;;;;;5093145;28;20040;-69
2022/09/17 14:34:21;;;;;;;0.90;0.60;;;;;;;;;;5074487;28;20056;-69
2022/09/17 14:36:53;;;;;;;1.27;0.40;;;;;;;;;;5057982;28;20052;-69
2022/09/17 14:39:33;;;;;;;0.93;0.40;;;;;;;;;;5090730;28;20074;-69
2022/09/17 14:42:11;;;;;;;1.35;0.35;;;;;;;;;;5090836;28;20389;-68
2022/09/17 14:45:10;;;;;;;0.85;0.40;;;;;;;;;;5090762;28;20432;-71
2022/09/17 14:47:41;;;;;;;3.22;1.30;;;;;;;;;;5090687;28;20044;-69
2022/09/17 14:50:21;;;;;;;1.70;0.70;;;;;;;;;;5090559;28;20439;-68
2022/09/17 14:52:53;;;;;;;0.95;0.50;;;;;;;;;;5040482;28;20052;-69
2022/09/17 14:55:33;;;;;;;0.55;0.40;;;;;;;;;;5073319;28;20123;-69
2022/09/17 14:58:03;;;;;;;2.70;0.63;;;;;;;;;;5090387;28;20064;-69
2022/09/17 15:00:36;;;;;;;0.93;0.40;;;;;;;;;;5090441;28;20072;-69
2022/09/17 15:03:21;;;;;;;0.98;0.45;;;;;;;;;;5090298;28;20044;-71
2022/09/17 15:05:53;;;;;;;1.88;0.65;;;;;;;;;;5090544;28;20048;-71
2022/09/17 15:08:27;;;;;;;2.05;0.45;;;;;;;;;;5090031;28;20586;-68
2022/09/17 15:11:11;;;;;;;2.15;0.57;;;;;;;;;;5090750;28;20064;-71
2022/09/17 15:13:50;;;;;;;1.05;0.40;;;;;;;;;;5089834;28;20044;-70
2022/09/17 15:16:26;;;;;;;0.73;0.20;;;;;;;;;;5042037;28;20055;-69
2022/09/17 15:19:02;;;;;;;0.60;0.30;;;;;;;;;;5008539;28;20059;-71
2022/09/17 15:21:44;;;;;;;0.93;0.57;;;;;;;;;;5073464;28;20070;-70
2022/09/17 15:24:39;;;;;;;2.65;0.50;;;;;;;;;;5090016;28;20052;-71
2022/09/17 15:27:21;;;;;;;1.63;0.55;;;;;;;;;;5089964;28;20052;-71
2022/09/17 15:29:55;;;;;;;3.67;1.00;;;;;;;;;;5049479;28;20056;-71
2022/09/17 15:32:26;;;;;;;1.73;0.80;;;;;;;;;;5033331;28;20060;-68
2022/09/17 15:35:18;;;;;;;2.95;0.60;;;;;;;;;;5000172;28;20049;-70
2022/09/17 15:37:51;;;;;;;1.48;0.85;;;;;;;;;;5049470;28;20053;-70
2022/09/17 15:40:41;;;;;;;0.93;0.30;;;;;;;;;;5049222;28;20409;-69
2022/09/17 15:43:29;;;;;;;2.83;0.60;;;;;;;;;;5049687;28;20056;-70
2022/09/17 15:46:20;;;;;;;0.60;0.50;;;;;;;;;;5049436;28;20065;-68
2022/09/17 15:48:51;;;;;;;2.58;0.40;;;;;;;;;;5032895;28;20052;-69
2022/09/17 15:51:31;;;;;;;1.08;0.43;;;;;;;;;;5049326;28;20437;-69
2022/09/17 15:54:05;;;;;;;1.48;0.40;;;;;;;;;;4984193;28;20540;-69